createdAt,value
2023-04-01T00:01:43.662Z,2.85
2023-04-01T00:04:12.049Z,3.04
2023-04-01T00:06:40.499Z,3.42
2023-04-01T00:09:08.988Z,3.80
2023-04-01T00:11:37.898Z,3.99
2023-04-01T00:14:08.010Z,3.61
2023-04-01T00:16:38.342Z,3.61
2023-04-01T00:19:08.284Z,3.42
2023-04-01T00:21:38.112Z,3.04
2023-04-01T00:24:08.050Z,3.61
2023-04-01T00:26:37.823Z,3.42
2023-04-01T00:29:08.105Z,2.66
2023-04-01T00:31:37.981Z,3.23
2023-04-01T00:34:08.155Z,3.42
2023-04-01T00:36:37.991Z,3.04
2023-04-01T00:39:07.825Z,3.04
2023-04-01T00:41:37.655Z,2.66
2023-04-01T00:44:35.431Z,3.04
2023-04-01T00:47:03.659Z,3.23
2023-04-01T00:49:41.563Z,3.23
2023-04-01T00:52:18.758Z,3.61
2023-04-01T00:54:53.778Z,3.61
2023-04-01T00:57:38.661Z,3.42
2023-04-01T01:00:15.811Z,3.23
2023-04-01T01:02:48.973Z,3.42
2023-04-01T01:05:34.160Z,3.80
2023-04-01T01:08:31.464Z,3.23
2023-04-01T01:10:58.572Z,3.42
2023-04-01T01:14:10.286Z,3.04
2023-04-01T01:16:49.782Z,3.23
2023-04-01T01:19:52.636Z,3.23
2023-04-01T01:22:53.176Z,3.04
2023-04-01T01:25:33.494Z,3.23
2023-04-01T01:28:13.627Z,3.04
2023-04-01T01:31:18.368Z,3.04
2023-04-01T01:34:21.392Z,4.18
2023-04-01T01:37:00.132Z,2.85
2023-04-01T01:39:35.973Z,3.80
2023-04-01T01:42:16.042Z,3.42
2023-04-01T01:44:50.256Z,3.42
2023-04-01T01:47:23.205Z,3.80
2023-04-01T01:49:56.362Z,3.04
2023-04-01T01:52:29.340Z,2.85
2023-04-01T01:54:59.658Z,3.23
2023-04-01T01:57:40.245Z,3.42
2023-04-01T02:00:15.840Z,3.61
2023-04-01T02:02:49.904Z,3.04
2023-04-01T02:05:25.530Z,3.42
2023-04-01T02:08:22.498Z,3.23
2023-04-01T02:11:09.348Z,3.42
2023-04-01T02:13:51.324Z,3.23
2023-04-01T02:16:40.380Z,3.42
2023-04-01T02:19:14.310Z,3.42
2023-04-01T02:21:45.300Z,3.04
2023-04-01T02:24:17.041Z,3.61
2023-04-01T02:26:48.199Z,3.23
2023-04-01T02:29:21.641Z,2.66
2023-04-01T02:31:54.232Z,3.42
2023-04-01T02:34:26.031Z,3.80
2023-04-01T02:36:57.794Z,3.42
2023-04-01T02:39:28.366Z,3.42
2023-04-01T02:41:58.141Z,3.42
2023-04-01T02:44:27.989Z,3.61
2023-04-01T02:46:56.347Z,3.99
2023-04-01T02:49:25.028Z,3.42
2023-04-01T02:51:53.370Z,3.99
2023-04-01T02:54:21.919Z,3.61
2023-04-01T02:56:50.432Z,3.23
2023-04-01T02:59:18.652Z,3.04
2023-04-01T03:01:47.050Z,3.23
2023-04-01T03:04:15.872Z,3.80
2023-04-01T03:06:44.140Z,3.42
2023-04-01T03:09:12.491Z,3.42
2023-04-01T03:11:41.841Z,3.23
2023-04-01T03:14:09.352Z,3.61
2023-04-01T03:16:37.890Z,3.42
2023-04-01T03:19:06.535Z,3.23
2023-04-01T03:21:34.727Z,4.18
2023-04-01T03:24:03.631Z,3.80
2023-04-01T03:26:31.556Z,3.61
2023-04-01T03:28:59.975Z,3.80
2023-04-01T03:31:28.685Z,3.42
2023-04-01T03:33:57.528Z,3.61
2023-04-01T03:36:25.499Z,3.61
2023-04-01T03:38:53.842Z,3.61
2023-04-01T03:41:22.282Z,3.61
2023-04-01T03:43:50.728Z,4.56
2023-04-01T03:46:21.318Z,3.61
2023-04-01T03:48:50.586Z,3.61
2023-04-01T03:51:18.999Z,3.42
2023-04-01T03:53:47.453Z,3.61
2023-04-01T03:56:16.056Z,3.61
2023-04-01T03:58:44.461Z,4.18
2023-04-01T04:01:22.833Z,3.80
2023-04-01T04:03:53.743Z,3.61
2023-04-01T04:06:25.369Z,4.56
2023-04-01T04:08:55.652Z,3.42
2023-04-01T04:11:24.295Z,3.61
2023-04-01T04:13:53.285Z,3.61
2023-04-01T04:16:20.778Z,3.80
2023-04-01T04:18:48.679Z,4.18
2023-04-01T04:21:17.094Z,4.37
2023-04-01T04:23:45.785Z,3.61
2023-04-01T04:26:16.518Z,4.37
2023-04-01T04:28:46.519Z,3.99
2023-04-01T04:31:25.792Z,4.18
2023-04-01T04:33:55.900Z,3.42
2023-04-01T04:36:25.666Z,3.99
2023-04-01T04:38:55.509Z,4.75
2023-04-01T04:41:26.708Z,4.56
2023-04-01T04:43:59.502Z,4.18
2023-04-01T04:46:29.311Z,4.75
2023-04-01T04:48:59.346Z,4.94
2023-04-01T04:51:29.270Z,4.18
2023-04-01T04:53:59.255Z,4.18
2023-04-01T04:56:29.149Z,4.37
2023-04-01T04:59:00.132Z,4.37
2023-04-01T05:01:30.446Z,4.75
2023-04-01T05:04:01.208Z,4.18
2023-04-01T05:06:32.252Z,3.61
2023-04-01T05:09:01.998Z,4.94
2023-04-01T05:11:31.847Z,3.80
2023-04-01T05:14:01.612Z,4.18
2023-04-01T05:16:32.542Z,4.37
2023-04-01T05:18:59.780Z,4.56
2023-04-01T05:21:28.305Z,4.56
2023-04-01T05:23:56.665Z,4.37
2023-04-01T05:26:25.217Z,4.18
2023-04-01T05:28:53.489Z,3.99
2023-04-01T05:31:22.070Z,4.37
2023-04-01T05:33:50.363Z,3.99
2023-04-01T05:36:18.876Z,4.18
2023-04-01T05:38:48.188Z,4.18
2023-04-01T05:41:16.314Z,4.18
2023-04-01T05:43:44.266Z,4.56
2023-04-01T05:46:12.531Z,4.18
2023-04-01T05:48:40.923Z,3.80
2023-04-01T05:51:15.651Z,3.99
2023-04-01T05:53:45.496Z,3.61
2023-04-01T05:56:16.016Z,3.42
2023-04-01T05:58:52.308Z,3.99
2023-04-01T06:01:22.167Z,4.18
2023-04-01T06:03:52.288Z,4.75
2023-04-01T06:06:29.612Z,4.18
2023-04-01T06:09:28.165Z,3.61
2023-04-01T06:12:52.847Z,4.56
2023-04-01T06:15:38.655Z,4.18
2023-04-01T06:18:26.682Z,3.99
2023-04-01T06:21:49.029Z,4.37
2023-04-01T06:24:45.230Z,4.94
2023-04-01T06:27:47.280Z,4.37
2023-04-01T06:30:58.956Z,5.32
2023-04-01T06:33:44.164Z,3.99
2023-04-01T06:36:41.607Z,5.13
2023-04-01T06:39:27.240Z,4.18
2023-04-01T06:42:54.975Z,4.75
2023-04-01T06:46:02.279Z,3.80
2023-04-01T06:49:08.983Z,3.99
2023-04-01T06:52:26.894Z,4.18
2023-04-01T06:55:16.077Z,4.37
2023-04-01T06:57:51.075Z,5.13
2023-04-01T07:00:35.817Z,4.56
2023-04-01T07:03:34.005Z,5.32
2023-04-01T07:06:15.423Z,3.80
2023-04-01T07:08:47.920Z,3.80
2023-04-01T07:11:36.638Z,3.61
2023-04-01T07:14:28.871Z,3.80
2023-04-01T07:17:20.805Z,3.23
2023-04-01T07:20:21.549Z,3.80
2023-04-01T07:22:57.165Z,3.80
2023-04-01T07:25:35.269Z,3.23
2023-04-01T07:28:14.087Z,2.85
2023-04-01T07:31:23.728Z,3.04
2023-04-01T07:34:22.353Z,3.80
2023-04-01T07:37:16.396Z,3.23
2023-04-01T07:40:05.514Z,3.04
2023-04-01T07:42:55.366Z,2.28
2023-04-01T07:45:45.353Z,3.23
2023-04-01T07:48:32.336Z,3.04
2023-04-01T07:51:30.081Z,3.42
2023-04-01T07:54:27.632Z,3.04
2023-04-01T07:57:20.673Z,2.47
2023-04-01T08:00:19.981Z,2.66
2023-04-01T08:03:17.589Z,2.85
2023-04-01T08:06:22.756Z,2.66
2023-04-01T08:09:32.746Z,2.66
2023-04-01T08:12:15.644Z,3.42
2023-04-01T08:15:12.305Z,3.23
2023-04-01T08:17:45.974Z,2.85
2023-04-01T08:20:27.217Z,3.23
2023-04-01T08:23:22.596Z,3.04
2023-04-01T08:25:57.419Z,3.42
2023-04-01T08:28:31.129Z,3.61
2023-04-01T08:31:10.086Z,3.23
2023-04-01T08:33:44.784Z,3.42
2023-04-01T08:36:28.857Z,3.04
2023-04-01T08:39:10.452Z,3.42
2023-04-01T08:42:17.155Z,3.04
2023-04-01T08:45:25.109Z,3.61
2023-04-01T08:48:35.839Z,3.80
2023-04-01T08:51:47.107Z,3.42
2023-04-01T08:54:30.667Z,3.23
2023-04-01T08:57:16.573Z,3.80
2023-04-01T09:00:31.493Z,3.23
2023-04-01T09:03:32.324Z,3.42
2023-04-01T09:06:30.847Z,3.42
2023-04-01T09:09:37.996Z,3.42
2023-04-01T09:12:11.896Z,2.66
2023-04-01T09:15:17.137Z,3.04
2023-04-01T09:18:34.447Z,3.23
2023-04-01T09:21:18.105Z,2.47
2023-04-01T09:24:03.968Z,1.90
2023-04-01T09:27:04.153Z,2.85
2023-04-01T09:30:10.349Z,2.66
2023-04-01T09:33:07.246Z,2.85
2023-04-01T09:35:47.376Z,3.04
2023-04-01T09:38:50.538Z,4.37
2023-04-01T09:41:38.210Z,5.32
2023-04-01T09:44:34.625Z,5.89
2023-04-01T09:47:43.099Z,6.65
2023-04-01T09:50:35.361Z,6.65
2023-04-01T09:53:35.939Z,7.22
2023-04-01T09:56:14.492Z,7.60
2023-04-01T09:59:10.896Z,7.79
2023-04-01T10:02:36.181Z,7.03
2023-04-01T10:05:24.526Z,7.22
2023-04-01T10:08:35.372Z,7.22
2023-04-01T10:11:36.292Z,6.27
2023-04-01T10:14:28.516Z,8.17
2023-04-01T10:17:29.761Z,7.79
2023-04-01T10:21:08.258Z,7.60
2023-04-01T10:23:46.934Z,7.98
2023-04-01T10:26:34.724Z,7.60
2023-04-01T10:30:10.572Z,7.60
2023-04-01T10:33:51.351Z,7.79
2023-04-01T10:37:19.527Z,8.93
2023-04-01T10:40:30.191Z,10.07
2023-04-01T10:43:50.864Z,8.93
2023-04-01T10:46:45.493Z,9.12
2023-04-01T10:50:08.775Z,11.78
2023-04-01T10:53:35.266Z,11.21
2023-04-01T10:56:41.911Z,11.40
2023-04-01T10:59:55.670Z,12.54
2023-04-01T11:02:46.726Z,12.16
2023-04-01T11:05:59.781Z,10.45
2023-04-01T11:09:20.322Z,11.78
2023-04-01T11:12:28.089Z,11.21
2023-04-01T11:15:23.682Z,11.78
2023-04-01T11:18:40.706Z,11.21
2023-04-01T11:21:47.913Z,10.45
2023-04-01T11:24:49.988Z,12.35
2023-04-01T11:28:01.081Z,10.07
2023-04-01T11:31:08.938Z,11.21
2023-04-01T11:33:47.873Z,10.26
2023-04-01T11:37:14.351Z,10.83
2023-04-01T11:40:10.450Z,9.69
2023-04-01T11:43:05.901Z,11.21
2023-04-01T11:45:50.471Z,12.73
2023-04-01T11:48:51.946Z,9.12
2023-04-01T11:51:44.423Z,7.22
2023-04-01T11:55:11.055Z,8.93
2023-04-01T11:58:19.375Z,8.74
2023-04-01T12:01:20.822Z,8.17
2023-04-01T12:04:27.683Z,8.93
2023-04-01T12:07:40.532Z,8.36
2023-04-01T12:10:23.012Z,8.36
2023-04-01T12:13:01.906Z,7.60
2023-04-01T12:16:25.296Z,7.60
2023-04-01T12:19:10.432Z,6.65
2023-04-01T12:22:11.458Z,6.84
2023-04-01T12:24:57.379Z,6.65
2023-04-01T12:27:42.617Z,6.08
2023-04-01T12:30:41.212Z,6.08
2023-04-01T12:33:46.889Z,6.08
2023-04-01T12:36:53.136Z,6.08
2023-04-01T12:39:50.948Z,5.89
2023-04-01T12:42:38.900Z,4.56
2023-04-01T12:45:14.938Z,5.32
2023-04-01T12:48:15.632Z,4.75
2023-04-01T12:51:39.326Z,4.18
2023-04-01T12:54:24.284Z,4.75
2023-04-01T12:57:21.731Z,4.94
2023-04-01T13:00:13.192Z,4.37
2023-04-01T13:02:58.203Z,4.94
2023-04-01T13:06:26.187Z,4.94
2023-04-01T13:09:19.826Z,5.51
2023-04-01T13:12:17.939Z,5.51
2023-04-01T13:15:56.961Z,5.70
2023-04-01T13:18:33.928Z,4.56
2023-04-01T13:21:22.878Z,4.56
2023-04-01T13:24:32.082Z,4.75
2023-04-01T13:27:40.774Z,4.56
2023-04-01T13:30:28.977Z,4.18
2023-04-01T13:33:45.317Z,4.94
2023-04-01T13:36:51.268Z,5.13
2023-04-01T13:40:22.418Z,4.56
2023-04-01T13:43:05.555Z,4.94
2023-04-01T13:45:47.733Z,4.94
2023-04-01T13:48:45.718Z,5.13
2023-04-01T13:51:30.835Z,5.32
2023-04-01T13:54:27.203Z,4.75
2023-04-01T13:57:15.038Z,5.51
2023-04-01T14:00:16.902Z,6.08
2023-04-01T14:03:43.508Z,7.22
2023-04-01T14:07:01.754Z,9.69
2023-04-01T14:09:45.962Z,8.74
2023-04-01T14:12:45.366Z,9.50
2023-04-01T14:15:39.765Z,8.93
2023-04-01T14:18:40.454Z,10.07
2023-04-01T14:21:35.517Z,8.55
2023-04-01T14:24:48.227Z,10.45
2023-04-01T14:27:47.320Z,10.83
2023-04-01T14:30:47.519Z,9.12
2023-04-01T14:33:51.991Z,10.07
2023-04-01T14:36:49.169Z,10.45
2023-04-01T14:39:27.553Z,10.64
2023-04-01T14:42:28.553Z,9.31
2023-04-01T14:45:30.713Z,8.93
2023-04-01T14:48:55.594Z,9.50
2023-04-01T14:51:38.514Z,8.36
2023-04-01T14:54:38.726Z,9.69
2023-04-01T14:57:40.933Z,9.50
2023-04-01T15:00:19.067Z,8.74
2023-04-01T15:03:28.712Z,8.93
2023-04-01T15:06:44.808Z,8.36
2023-04-01T15:09:49.753Z,7.22
2023-04-01T15:12:48.356Z,7.79
2023-04-01T15:15:49.482Z,8.17
2023-04-01T15:18:31.366Z,7.98
2023-04-01T15:21:43.200Z,7.60
2023-04-01T15:24:57.501Z,7.98
2023-04-01T15:28:18.701Z,6.08
2023-04-01T15:31:12.231Z,6.65
2023-04-01T15:34:26.007Z,6.84
2023-04-01T15:37:09.283Z,6.65
2023-04-01T15:39:53.226Z,6.65
2023-04-01T15:42:55.309Z,5.32
2023-04-01T15:45:25.105Z,7.22
2023-04-01T15:48:50.109Z,7.22
2023-04-01T15:51:44.901Z,7.41
2023-04-01T15:54:39.573Z,8.74
2023-04-01T15:57:13.401Z,7.60
2023-04-01T15:59:52.243Z,9.12
2023-04-01T16:02:40.888Z,8.93
2023-04-01T16:05:29.748Z,9.50
2023-04-01T16:08:31.200Z,8.74
2023-04-01T16:11:19.440Z,7.98
2023-04-01T16:14:10.838Z,8.17
2023-04-01T16:17:17.677Z,8.55
2023-04-01T16:20:52.992Z,5.70
2023-04-01T16:24:06.278Z,6.65
2023-04-01T16:27:15.763Z,5.89
2023-04-01T16:30:02.324Z,5.89
2023-04-01T16:32:46.942Z,5.89
2023-04-01T16:35:47.460Z,6.27
2023-04-01T16:39:23.727Z,7.41
2023-04-01T16:42:34.113Z,7.03
2023-04-01T16:45:32.013Z,7.79
2023-04-01T16:48:23.018Z,8.93
2023-04-01T16:51:17.346Z,8.74
2023-04-01T16:54:03.471Z,8.93
2023-04-01T16:56:50.381Z,10.64
2023-04-01T16:59:35.645Z,10.45
2023-04-01T17:02:14.588Z,10.45
2023-04-01T17:05:01.781Z,11.02
2023-04-01T17:07:31.476Z,12.92
2023-04-01T17:10:47.790Z,9.69
2023-04-01T17:13:46.396Z,10.45
2023-04-01T17:16:33.476Z,10.64
2023-04-01T17:19:40.459Z,10.26
2023-04-01T17:22:30.580Z,9.88
2023-04-01T17:25:42.175Z,11.02
2023-04-01T17:28:37.482Z,12.35
2023-04-01T17:31:38.615Z,10.45
2023-04-01T17:34:34.267Z,8.74
2023-04-01T17:37:33.885Z,9.88
2023-04-01T17:40:14.931Z,8.93
2023-04-01T17:43:08.576Z,9.88
2023-04-01T17:45:51.059Z,8.74
2023-04-01T17:48:59.805Z,10.64
2023-04-01T17:52:04.631Z,9.31
2023-04-01T17:55:42.361Z,9.31
2023-04-01T17:58:32.397Z,9.88
2023-04-01T18:01:52.804Z,8.17
2023-04-01T18:04:30.609Z,7.79
2023-04-01T18:07:36.580Z,7.60
2023-04-01T18:10:52.872Z,8.36
2023-04-01T18:13:37.589Z,7.98
2023-04-01T18:16:31.286Z,8.74
2023-04-01T18:19:14.367Z,8.74
2023-04-01T18:21:53.769Z,10.26
2023-04-01T18:25:14.168Z,10.07
2023-04-01T18:28:30.456Z,8.36
2023-04-01T18:31:03.281Z,9.69
2023-04-01T18:33:55.896Z,9.12
2023-04-01T18:37:00.558Z,9.31
2023-04-01T18:39:39.148Z,9.12
2023-04-01T18:42:31.514Z,9.50
2023-04-01T18:45:33.665Z,8.36
2023-04-01T18:48:44.846Z,8.55
2023-04-01T18:51:26.761Z,7.98
2023-04-01T18:54:11.105Z,7.22
2023-04-01T18:56:46.763Z,7.22
2023-04-01T18:59:28.354Z,6.84
2023-04-01T19:02:05.891Z,7.60
2023-04-01T19:04:52.953Z,6.84
2023-04-01T19:07:37.940Z,5.70
2023-04-01T19:11:11.353Z,5.70
2023-04-01T19:14:25.388Z,5.32
2023-04-01T19:17:22.777Z,5.89
2023-04-01T19:20:41.898Z,6.46
2023-04-01T19:23:42.179Z,6.46
2023-04-01T19:26:37.706Z,5.51
2023-04-01T19:29:20.966Z,6.84
2023-04-01T19:32:24.658Z,6.65
2023-04-01T19:35:24.818Z,5.51
2023-04-01T19:38:11.969Z,7.41
2023-04-01T19:40:48.990Z,6.84
2023-04-01T19:43:33.858Z,7.03
2023-04-01T19:46:15.724Z,8.74
2023-04-01T19:49:22.722Z,7.22
2023-04-01T19:52:01.947Z,7.03
2023-04-01T19:54:40.396Z,8.36
2023-04-01T19:57:22.228Z,8.74
2023-04-01T20:00:09.076Z,7.98
2023-04-01T20:02:57.718Z,6.84
2023-04-01T20:05:41.924Z,5.89
2023-04-01T20:08:47.019Z,8.55
2023-04-01T20:11:46.130Z,7.41
2023-04-01T20:14:27.266Z,7.03
2023-04-01T20:17:22.791Z,8.93
2023-04-01T20:20:00.411Z,7.98
2023-04-01T20:22:45.773Z,8.36
2023-04-01T20:26:00.815Z,9.12
2023-04-01T20:28:44.670Z,7.79
2023-04-01T20:31:35.868Z,7.03
2023-04-01T20:34:52.084Z,7.41
2023-04-01T20:37:48.109Z,7.60
2023-04-01T20:40:44.750Z,7.22
2023-04-01T20:43:37.223Z,7.60
2023-04-01T20:46:21.584Z,8.17
2023-04-01T20:49:33.847Z,7.41
2023-04-01T20:52:15.469Z,7.41
2023-04-01T20:54:54.517Z,10.07
2023-04-01T20:57:43.230Z,8.74
2023-04-01T21:00:25.534Z,9.69
2023-04-01T21:03:35.824Z,7.60
2023-04-01T21:06:43.283Z,9.69
2023-04-01T21:09:53.825Z,8.93
2023-04-01T21:13:22.516Z,8.55
2023-04-01T21:16:17.750Z,8.55
2023-04-01T21:19:17.551Z,9.12
2023-04-01T21:22:08.248Z,8.93
2023-04-01T21:24:58.454Z,9.31
2023-04-01T21:27:39.088Z,8.36
2023-04-01T21:30:44.578Z,9.12
2023-04-01T21:33:55.031Z,9.31
2023-04-01T21:37:24.932Z,9.12
2023-04-01T21:40:28.572Z,7.22
2023-04-01T21:43:35.780Z,8.74
2023-04-01T21:46:32.796Z,9.50
2023-04-01T21:49:44.742Z,8.93
2023-04-01T21:52:51.457Z,7.60
2023-04-01T21:55:46.279Z,9.69
2023-04-01T21:59:02.490Z,7.98
2023-04-01T22:02:01.807Z,8.17
2023-04-01T22:05:01.140Z,8.74
2023-04-01T22:07:47.439Z,8.74
2023-04-01T22:10:41.763Z,9.50
2023-04-01T22:13:25.938Z,8.74
2023-04-01T22:16:38.213Z,8.55
2023-04-01T22:19:24.173Z,9.31
2023-04-01T22:21:53.154Z,7.79
2023-04-01T22:24:33.644Z,8.36
2023-04-01T22:27:19.033Z,8.55
2023-04-01T22:30:24.363Z,9.12
2023-04-01T22:33:16.028Z,7.79
2023-04-01T22:35:48.810Z,7.03
2023-04-01T22:39:11.906Z,8.74
2023-04-01T22:42:08.040Z,6.84
2023-04-01T22:44:53.354Z,7.98
2023-04-01T22:48:02.520Z,7.98
2023-04-01T22:50:34.362Z,7.22
2023-04-01T22:53:47.452Z,7.22
2023-04-01T22:56:28.447Z,7.22
2023-04-01T22:59:21.175Z,7.22
2023-04-01T23:02:08.195Z,5.89
2023-04-01T23:04:44.184Z,7.22
2023-04-01T23:08:03.186Z,6.27
2023-04-01T23:10:55.139Z,5.51
2023-04-01T23:13:38.983Z,5.32
2023-04-01T23:16:11.191Z,5.70
2023-04-01T23:19:12.853Z,4.94
2023-04-01T23:21:53.390Z,7.03
2023-04-01T23:24:31.798Z,6.65
2023-04-01T23:27:26.783Z,5.70
2023-04-01T23:29:56.601Z,6.08
2023-04-01T23:32:28.363Z,5.51
2023-04-01T23:35:01.278Z,6.84
2023-04-01T23:37:31.249Z,6.65
2023-04-01T23:40:02.063Z,6.27
2023-04-01T23:42:41.481Z,5.32
2023-04-01T23:45:21.665Z,5.70
2023-04-01T23:47:51.731Z,6.46
2023-04-01T23:50:26.422Z,5.89
2023-04-01T23:53:24.488Z,6.08
2023-04-01T23:55:56.642Z,6.27
2023-04-01T23:58:56.577Z,5.32
